16h40 EST


 

Suivi/Infos de l'aéroport


-ou-


 

Suivi des vols en temps réelSeaPort (K5) #12

Thumbnail
SeaPort 12
SQH12 · "Sasquatch" (tous les vols) seaportair.com
Tupelo Rgnl ()
Int'l de Memphis ()
11h28 CST
12h07 CST
Prévu: 11h25 CST
Prévu: 11h56 CST
Durée: 39 minutes
jeudi, 18 décembre 2014
Statut A atterri hier. (journal de vol & graphique)
Avion Cessna Caravan (monoturbopropulseur) (C208/G – photos)
Vitesse Plan de vol: 168 kts (graphique)
Altitude Plan de vol: 6.000 Pieds (graphique)
Distance En ligne droite 140 km    Prévue 150 km    Parcourue 151 km
TarifAverage: $98.87 (Aperçu sur les compagnies aériennes)
Cabine
Route n/a
JOURNAL DE L'ACTIVITE
Vous voulez une recherche complète sur l'historique de SQH12 depuis 1998? Achetez maintenant. Recevez-le dans l'heure.
Date Avion Provenance Destination Départ Arrivée Durée
18-12-2014 C208/GTupelo Rgnl ()Int'l de Memphis () 11h28 CST 12h07 CST 0:39
18-12-2014 C208/GNashville Intl ()Tupelo Rgnl () 10h03 CST 11h11 CST 1:08
18-12-2014 C208/GTupelo Rgnl ()Nashville Intl () 06h34 CST 07h31 CST 0:57
17-12-2014 C208/GNashville Intl ()Tupelo Rgnl () 19h28 CST 20h30 CST 1:02
17-12-2014 C208/GTupelo Rgnl ()Nashville Intl () 17h51 CST 18h56 CST 1:05
17-12-2014 C208/GInt'l de Memphis ()Tupelo Rgnl () 16h58 CST 17h29 CST 0:31
16-12-2014 C208/GBoone County ()Int'l de Memphis () 08h51 CST 10h05 CST 1:14
16-12-2014 C208/GInt'l de Memphis ()Boone County () 06h44 CST 08h12 CST 1:28
15-12-2014 C208/GBoone County ()Int'l de Memphis () 14h31 CST 15h33 CST 1:02
15-12-2014 UnknownJuneau Intl ()Hoonah () 09h45 AKST 10h05 AKST (?) 18:04
15-12-2014 C208Int'l de Kansas City ()Boone County () 12h43 CST 14h01 CST 1:17
15-12-2014 C208/GSalina Rgnl ()Int'l de Kansas City () 10h49 CST 11h52 CST 1:03
15-12-2014 C208/GInt'l de Kansas City ()Salina Rgnl () 09h12 CST 10h23 CST 1:11
15-12-2014 C208/GSalina Rgnl ()Int'l de Kansas City () 07h00 CST 08h05 CST 1:04
14-12-2014 C208Int'l de Kansas City ()Salina Rgnl () 19h02 CST 20h09 CST 1:07
14-12-2014 C208/GSalina Rgnl ()Int'l de Kansas City () 17h37 CST 18h37 CST 1:00
14-12-2014 C208/GInt'l de Kansas City ()Salina Rgnl () 15h58 CST 17h12 CST 1:14
14-12-2014 C208/GBoone County ()Int'l de Kansas City () 14h08 CST 15h21 CST 1:12
14-12-2014 C208/GInt'l de Memphis ()Boone County () 12h22 CST 13h34 CST 1:11
11-12-2014 C208/GTupelo Rgnl ()Int'l de Memphis () 11h35 CST 12h14 CST 0:39
11-12-2014 C208/GNashville Intl ()Tupelo Rgnl () 10h19 CST 11h20 CST 1:00
11-12-2014 C208/GTupelo Rgnl ()Nashville Intl () 06h57 CST 08h04 CST 1:07
10-12-2014 C208/GNashville Intl ()Tupelo Rgnl () 21h01 CST 22h04 CST 1:03
10-12-2014 C208/GTupelo Rgnl ()Nashville Intl () 19h28 CST 20h34 CST 1:06
10-12-2014 C208/GInt'l de Memphis ()Tupelo Rgnl () 18h52 CST 19h25 CST 0:32
09-12-2014 C208/GInt'l de Kansas City ()Boone County () 15h12 CST 16h31 CST 1:19
09-12-2014 C208/GSalina Rgnl ()Int'l de Kansas City () 10h51 CST 11h55 CST 1:04
09-12-2014 C208/GInt'l de Kansas City ()Salina Rgnl () 09h11 CST 10h11 CST 1:00
09-12-2014 C208/GGreat Bend Muni ()Int'l de Kansas City () 06h56 CST 08h20 CST 1:24
08-12-2014 C208/GInt'l de Kansas City ()Great Bend Muni () 17h23 CST 19h03 CST 1:39
08-12-2014 C208/GGreat Bend Muni ()Int'l de Kansas City () 14h42 CST 16h00 CST 1:18
08-12-2014 C208/GInt'l de Kansas City ()Great Bend Muni () 12h38 CST 14h16 CST 1:38
08-12-2014 C208/GSalina Rgnl ()Int'l de Kansas City () 06h42 CST 07h38 CST 0:56
07-12-2014 C208/GInt'l de Kansas City ()Salina Rgnl () 19h18 CST 20h31 CST 1:13
07-12-2014 C208/GSalina Rgnl ()Int'l de Kansas City () 17h47 CST 18h46 CST 0:59
07-12-2014 C208/GInt'l de Kansas City ()Salina Rgnl () 15h51 CST 17h18 CST 1:27
07-12-2014 C208/GBoone County ()Int'l de Kansas City () 13h43 CST 15h13 CST 1:30
07-12-2014 C208/GInt'l de Memphis ()Boone County () 11h58 CST 13h10 CST 1:12
Les membres inscrits (l'inscription est gratuite et facile!) voient 4 months d'historique. S'inscrire